createdAt,value
2018-07-09T00:02:30.217Z,16.05
2018-07-09T00:05:02.635Z,15.96
2018-07-09T00:07:34.781Z,15.87
2018-07-09T00:10:07.270Z,15.81
2018-07-09T00:12:39.403Z,15.71
2018-07-09T00:15:11.576Z,15.66
2018-07-09T00:17:43.874Z,15.63
2018-07-09T00:20:16.114Z,15.53
2018-07-09T00:22:48.282Z,15.47
2018-07-09T00:25:20.567Z,15.46
2018-07-09T00:27:53.155Z,15.41
2018-07-09T00:30:25.523Z,15.36
2018-07-09T00:32:58.863Z,15.34
2018-07-09T00:35:31.003Z,15.40
2018-07-09T00:38:03.592Z,15.34
2018-07-09T00:40:36.196Z,15.25
2018-07-09T00:43:08.459Z,15.19
2018-07-09T00:45:40.665Z,15.16
2018-07-09T00:48:12.871Z,14.95
2018-07-09T00:50:45.090Z,14.88
2018-07-09T00:53:18.151Z,14.77
2018-07-09T00:55:50.290Z,14.78
2018-07-09T00:58:22.717Z,14.69
2018-07-09T01:00:54.965Z,14.76
2018-07-09T01:03:27.099Z,14.68
2018-07-09T01:05:59.279Z,14.72
2018-07-09T01:08:31.430Z,14.56
2018-07-09T01:11:15.168Z,14.47
2018-07-09T01:13:47.290Z,14.48
2018-07-09T01:16:19.735Z,14.51
2018-07-09T01:18:51.889Z,14.63
2018-07-09T01:21:25.200Z,14.59
2018-07-09T01:23:57.372Z,14.61
2018-07-09T01:26:29.502Z,14.51
2018-07-09T01:29:01.653Z,14.41
2018-07-09T01:31:33.822Z,14.49
2018-07-09T01:34:05.943Z,14.61
2018-07-09T01:36:37.999Z,14.58
2018-07-09T01:39:10.162Z,14.55
2018-07-09T01:41:42.419Z,14.46
2018-07-09T01:44:14.593Z,14.47
2018-07-09T01:46:46.784Z,14.52
2018-07-09T01:49:18.869Z,14.56
2018-07-09T01:51:54.208Z,14.64
2018-07-09T01:54:26.314Z,14.60
2018-07-09T01:56:58.466Z,14.40
2018-07-09T01:59:30.580Z,14.43
2018-07-09T02:02:02.697Z,14.28
2018-07-09T02:04:34.889Z,14.15
2018-07-09T02:07:07.628Z,14.18
2018-07-09T02:09:39.756Z,14.23
2018-07-09T02:12:11.916Z,14.14
2018-07-09T02:14:44.072Z,14.17
2018-07-09T02:17:16.271Z,14.11
2018-07-09T02:19:48.479Z,14.12
2018-07-09T02:22:20.672Z,14.15
2018-07-09T02:24:52.882Z,14.16
2018-07-09T02:27:25.046Z,14.15
2018-07-09T02:29:57.193Z,14.32
2018-07-09T02:32:29.353Z,14.28
2018-07-09T02:35:01.540Z,14.27
2018-07-09T02:37:33.679Z,14.31
2018-07-09T02:40:05.805Z,14.21
2018-07-09T02:42:37.931Z,13.94
2018-07-09T02:45:10.134Z,13.84
2018-07-09T02:47:42.273Z,13.80
2018-07-09T02:50:14.510Z,13.64
2018-07-09T02:52:46.687Z,13.60
2018-07-09T02:55:18.851Z,13.60
2018-07-09T02:57:51.042Z,13.66
2018-07-09T03:00:23.231Z,13.73
2018-07-09T03:02:55.407Z,13.64
2018-07-09T03:05:27.629Z,13.77
2018-07-09T03:07:59.800Z,13.73
2018-07-09T03:10:32.024Z,13.72
2018-07-09T03:13:04.209Z,13.67
2018-07-09T03:15:36.455Z,13.59
2018-07-09T03:18:08.628Z,13.58
2018-07-09T03:20:40.799Z,13.75
2018-07-09T03:23:13.001Z,13.84
2018-07-09T03:25:45.195Z,13.93
2018-07-09T03:28:17.335Z,13.80
2018-07-09T03:30:49.475Z,13.75
2018-07-09T03:33:21.655Z,13.83
2018-07-09T03:35:53.870Z,13.81
2018-07-09T03:38:26.024Z,13.82
2018-07-09T03:40:58.188Z,13.95
2018-07-09T03:43:30.337Z,14.04
2018-07-09T03:46:02.819Z,14.10
2018-07-09T03:48:34.980Z,14.26
2018-07-09T03:51:07.748Z,14.31
2018-07-09T03:53:40.007Z,14.34
2018-07-09T03:56:12.103Z,14.28
2018-07-09T03:58:44.221Z,14.28
2018-07-09T04:01:16.384Z,14.33
2018-07-09T04:03:48.517Z,14.38
2018-07-09T04:06:20.629Z,14.48
2018-07-09T04:08:52.736Z,14.65
2018-07-09T04:11:24.856Z,14.74
2018-07-09T04:13:56.993Z,14.83
2018-07-09T04:16:29.089Z,14.89
2018-07-09T04:19:01.200Z,14.98
2018-07-09T04:21:33.305Z,15.07
2018-07-09T04:24:05.454Z,15.15
2018-07-09T04:26:37.553Z,15.25
2018-07-09T04:29:09.647Z,15.50
2018-07-09T04:31:41.788Z,16.06
2018-07-09T04:34:13.933Z,16.89
2018-07-09T04:36:46.076Z,17.79
2018-07-09T04:39:18.233Z,18.77
2018-07-09T04:41:50.374Z,18.75
2018-07-09T04:44:22.462Z,18.95
2018-07-09T04:46:54.589Z,19.19
2018-07-09T04:49:26.683Z,19.73
2018-07-09T04:51:58.840Z,19.85
2018-07-09T04:54:31.024Z,20.16
2018-07-09T04:57:03.273Z,20.41
2018-07-09T04:59:35.625Z,20.51
2018-07-09T05:02:07.745Z,20.30
2018-07-09T05:04:39.907Z,21.01
2018-07-09T05:07:12.109Z,21.17
2018-07-09T05:09:44.262Z,22.01
2018-07-09T05:12:16.417Z,22.47
2018-07-09T05:14:48.602Z,22.20
2018-07-09T05:17:20.857Z,22.85
2018-07-09T05:19:53.040Z,23.38
2018-07-09T05:22:25.253Z,24.67
2018-07-09T05:24:57.429Z,24.39
2018-07-09T05:27:29.576Z,24.56
2018-07-09T05:30:01.910Z,23.66
2018-07-09T05:32:34.064Z,24.00
2018-07-09T05:35:06.683Z,23.92
2018-07-09T05:37:38.844Z,24.10
2018-07-09T05:40:11.012Z,24.18
2018-07-09T05:42:43.244Z,24.79
2018-07-09T05:45:15.461Z,26.65
2018-07-09T05:47:47.776Z,26.80
2018-07-09T05:50:20.068Z,25.82
2018-07-09T05:52:52.220Z,25.12
2018-07-09T05:55:24.386Z,25.03
2018-07-09T05:57:56.538Z,25.86
2018-07-09T06:00:28.719Z,26.15
2018-07-09T06:03:00.929Z,27.20
2018-07-09T06:05:33.157Z,25.98
2018-07-09T06:08:05.417Z,26.87
2018-07-09T06:10:37.568Z,26.70
2018-07-09T06:13:09.732Z,26.53
2018-07-09T06:15:41.856Z,27.12
2018-07-09T06:18:14.016Z,27.39
2018-07-09T06:20:46.192Z,27.09
2018-07-09T06:23:18.378Z,26.29
2018-07-09T06:25:50.546Z,27.26
2018-07-09T06:28:22.870Z,27.89
2018-07-09T06:30:55.123Z,27.41
2018-07-09T06:33:27.343Z,27.89
2018-07-09T06:35:59.593Z,27.19
2018-07-09T06:38:31.856Z,27.55
2018-07-09T06:41:04.124Z,28.41
2018-07-09T06:43:36.447Z,28.91
2018-07-09T06:46:08.663Z,29.73
2018-07-09T06:48:41.055Z,30.43
2018-07-09T06:51:13.295Z,30.50
2018-07-09T06:53:45.467Z,29.94
2018-07-09T06:56:17.634Z,29.47
2018-07-09T06:58:49.793Z,30.38
2018-07-09T07:01:21.932Z,30.95
2018-07-09T07:03:54.107Z,31.18
2018-07-09T07:06:26.246Z,30.15
2018-07-09T07:08:58.531Z,31.60
2018-07-09T07:11:30.537Z,30.97
2018-07-09T07:14:02.726Z,31.70
2018-07-09T07:16:34.836Z,31.96
2018-07-09T07:19:07.068Z,32.72
2018-07-09T07:21:39.266Z,32.02
2018-07-09T07:24:11.334Z,32.25
2018-07-09T07:26:43.566Z,31.85
2018-07-09T07:29:15.813Z,32.26
2018-07-09T07:31:47.929Z,32.13
2018-07-09T07:34:20.096Z,31.04
2018-07-09T07:36:52.324Z,31.61
2018-07-09T07:39:24.532Z,31.80
2018-07-09T07:41:56.558Z,32.05
2018-07-09T07:44:28.976Z,33.74
2018-07-09T07:47:01.236Z,34.82
2018-07-09T07:49:33.349Z,34.96
2018-07-09T07:52:05.517Z,34.00
2018-07-09T07:54:37.664Z,34.52
2018-07-09T07:57:10.035Z,33.50
2018-07-09T07:59:42.170Z,33.21
2018-07-09T08:02:14.382Z,35.20
2018-07-09T08:04:46.592Z,34.68
2018-07-09T08:07:18.841Z,35.13
2018-07-09T08:09:52.164Z,33.92
2018-07-09T08:14:57.486Z,34.89
2018-07-09T08:17:29.677Z,35.09
2018-07-09T08:20:01.960Z,34.87
2018-07-09T08:22:34.119Z,34.92
2018-07-09T08:25:06.325Z,34.21
2018-07-09T08:27:38.484Z,34.94
2018-07-09T08:30:10.739Z,34.92
2018-07-09T08:32:42.913Z,34.97
2018-07-09T08:35:15.094Z,35.47
2018-07-09T08:37:47.319Z,36.53
2018-07-09T08:40:19.533Z,36.13
2018-07-09T08:42:51.697Z,36.46
2018-07-09T08:45:23.847Z,35.60
2018-07-09T08:47:56.012Z,35.94
2018-07-09T08:50:28.145Z,36.20
2018-07-09T08:53:00.364Z,36.16
2018-07-09T08:55:32.568Z,36.13
2018-07-09T08:58:04.832Z,35.45
2018-07-09T09:00:37.033Z,36.55
2018-07-09T09:03:09.302Z,36.63
2018-07-09T09:05:41.407Z,37.74
2018-07-09T09:08:13.574Z,37.76
2018-07-09T09:13:49.064Z,34.29
2018-07-09T09:16:21.341Z,33.70
2018-07-09T09:18:53.551Z,33.08
2018-07-09T09:21:25.751Z,32.78
2018-07-09T09:23:57.919Z,32.81
2018-07-09T09:26:30.126Z,34.64
2018-07-09T09:29:03.367Z,34.20
2018-07-09T09:31:35.619Z,34.62
2018-07-09T09:34:07.699Z,35.41
2018-07-09T09:36:39.993Z,34.30
2018-07-09T09:39:13.104Z,35.37
2018-07-09T09:41:45.323Z,36.00
2018-07-09T09:44:17.540Z,35.39
2018-07-09T09:46:49.698Z,35.16
2018-07-09T09:49:21.888Z,33.39
2018-07-09T09:51:54.550Z,32.98
2018-07-09T09:54:26.863Z,31.93
2018-07-09T09:56:59.050Z,30.76
2018-07-09T09:59:31.198Z,31.56
2018-07-09T10:02:03.437Z,33.15
2018-07-09T10:04:35.601Z,31.83
2018-07-09T10:07:07.796Z,31.69
2018-07-09T10:09:39.952Z,31.22
2018-07-09T10:12:12.100Z,31.58
2018-07-09T10:14:44.317Z,30.48
2018-07-09T10:17:16.452Z,30.01
2018-07-09T10:19:48.583Z,30.50
2018-07-09T10:22:20.698Z,31.65
2018-07-09T10:24:52.935Z,32.98
2018-07-09T10:27:25.235Z,33.64
2018-07-09T10:29:57.439Z,35.00
2018-07-09T10:32:29.579Z,35.50
2018-07-09T10:35:03.134Z,35.56
2018-07-09T10:37:35.411Z,34.69
2018-07-09T10:40:07.520Z,34.58
2018-07-09T10:42:39.740Z,33.69
2018-07-09T10:45:11.969Z,32.84
2018-07-09T10:47:44.159Z,32.43
2018-07-09T10:50:16.307Z,32.23
2018-07-09T10:52:48.468Z,31.37
2018-07-09T10:55:20.780Z,31.65
2018-07-09T10:57:52.851Z,32.82
2018-07-09T11:00:25.044Z,33.70
2018-07-09T11:02:57.262Z,32.41
2018-07-09T11:05:29.556Z,32.43
2018-07-09T11:08:02.881Z,33.21
2018-07-09T11:10:36.111Z,33.61
2018-07-09T11:13:08.452Z,34.76
2018-07-09T11:15:40.657Z,34.10
2018-07-09T11:18:12.833Z,33.20
2018-07-09T11:20:44.999Z,33.31
2018-07-09T11:23:17.240Z,32.94
2018-07-09T11:25:49.362Z,32.43
2018-07-09T11:28:21.551Z,32.52
2018-07-09T11:30:53.700Z,32.95
2018-07-09T11:33:25.946Z,33.62
2018-07-09T11:36:00.265Z,33.09
2018-07-09T11:38:32.791Z,32.64
2018-07-09T11:41:05.305Z,31.75
2018-07-09T11:43:38.133Z,31.39
2018-07-09T11:46:14.220Z,31.78
2018-07-09T11:48:46.348Z,32.84
2018-07-09T11:51:18.474Z,32.90
2018-07-09T11:53:50.640Z,33.87
2018-07-09T11:56:22.894Z,35.20
2018-07-09T11:58:58.186Z,34.82
2018-07-09T12:01:30.376Z,34.37
2018-07-09T12:04:02.579Z,35.76
2018-07-09T12:06:34.775Z,35.12
2018-07-09T12:09:06.989Z,32.44
2018-07-09T12:11:39.258Z,31.25
2018-07-09T12:14:11.489Z,31.29
2018-07-09T12:16:43.644Z,31.69
2018-07-09T12:19:15.765Z,32.04
2018-07-09T12:21:47.918Z,31.98
2018-07-09T12:24:20.089Z,32.01
2018-07-09T12:26:52.230Z,31.90
2018-07-09T12:29:24.384Z,32.03
2018-07-09T12:31:56.692Z,32.18
2018-07-09T12:34:28.853Z,32.11
2018-07-09T12:37:01.225Z,30.68
2018-07-09T12:39:33.483Z,30.43
2018-07-09T12:42:05.689Z,31.53
2018-07-09T12:44:37.973Z,32.19
2018-07-09T12:47:10.131Z,32.40
2018-07-09T12:49:42.322Z,33.40
2018-07-09T12:52:14.521Z,33.18
2018-07-09T12:54:46.667Z,33.43
2018-07-09T12:57:18.818Z,33.65
2018-07-09T12:59:51.005Z,33.09
2018-07-09T13:02:23.120Z,35.31
2018-07-09T13:04:55.169Z,36.77
2018-07-09T13:07:27.343Z,35.72
2018-07-09T13:09:59.491Z,35.37
2018-07-09T13:12:31.551Z,34.81
2018-07-09T13:15:03.622Z,35.33
2018-07-09T13:17:36.864Z,33.23
2018-07-09T13:20:08.986Z,35.38
2018-07-09T13:22:41.056Z,35.64
2018-07-09T13:25:13.216Z,35.42
2018-07-09T13:27:45.335Z,35.17
2018-07-09T13:30:17.445Z,33.00
2018-07-09T13:32:49.574Z,34.59
2018-07-09T13:35:21.965Z,34.43
2018-07-09T13:37:54.069Z,33.04
2018-07-09T13:40:26.195Z,33.31
2018-07-09T13:42:58.281Z,32.60
2018-07-09T13:45:30.404Z,34.30
2018-07-09T13:48:02.568Z,36.64
2018-07-09T13:50:35.184Z,35.80
2018-07-09T13:53:07.323Z,36.07
2018-07-09T13:55:39.546Z,36.69
2018-07-09T13:58:11.689Z,37.54
2018-07-09T14:00:43.892Z,36.59
2018-07-09T14:03:16.041Z,34.57
2018-07-09T14:05:48.299Z,33.96
2018-07-09T14:08:20.491Z,32.71
2018-07-09T14:10:52.658Z,31.41
2018-07-09T14:13:24.800Z,31.11
2018-07-09T14:15:56.984Z,31.17
2018-07-09T14:18:29.219Z,30.08
2018-07-09T14:21:01.363Z,30.45
2018-07-09T14:23:33.598Z,30.28
2018-07-09T14:26:05.834Z,30.13
2018-07-09T14:28:37.986Z,30.02
2018-07-09T14:31:12.704Z,29.40
2018-07-09T14:33:44.975Z,29.35
2018-07-09T14:36:17.143Z,29.60
2018-07-09T14:38:49.341Z,29.49
2018-07-09T14:41:21.508Z,29.32
2018-07-09T14:43:54.800Z,29.42
2018-07-09T14:46:28.321Z,29.57
2018-07-09T14:49:00.589Z,29.53
2018-07-09T14:51:32.781Z,29.31
2018-07-09T14:54:05.048Z,29.46
2018-07-09T14:56:37.211Z,29.19
2018-07-09T14:59:09.471Z,29.29
2018-07-09T15:01:41.640Z,29.59
2018-07-09T15:04:13.866Z,29.53
2018-07-09T15:06:45.918Z,29.33
2018-07-09T15:09:18.025Z,30.56
2018-07-09T15:11:50.146Z,32.05
2018-07-09T15:14:23.122Z,33.02
2018-07-09T15:16:55.275Z,33.16
2018-07-09T15:19:27.365Z,32.69
2018-07-09T15:21:59.536Z,32.96
2018-07-09T15:24:31.765Z,32.63
2018-07-09T15:27:03.904Z,32.83
2018-07-09T15:29:36.006Z,31.29
2018-07-09T15:32:18.384Z,32.23
2018-07-09T15:34:50.944Z,33.83
2018-07-09T15:37:24.339Z,34.43
2018-07-09T15:39:56.435Z,34.84
2018-07-09T15:42:28.536Z,36.08
2018-07-09T15:45:00.648Z,35.03
2018-07-09T15:47:32.811Z,35.48
2018-07-09T15:50:06.012Z,36.10
2018-07-09T15:52:39.091Z,34.23
2018-07-09T15:55:12.289Z,34.84
2018-07-09T15:57:44.453Z,33.22
2018-07-09T16:00:16.576Z,31.59
2018-07-09T16:02:48.712Z,30.33
2018-07-09T16:05:20.926Z,29.80
2018-07-09T16:07:53.072Z,29.22
2018-07-09T16:10:25.292Z,28.97
2018-07-09T16:12:57.692Z,28.63
2018-07-09T16:15:29.760Z,28.39
2018-07-09T16:18:02.179Z,28.26
2018-07-09T16:20:34.292Z,28.05
2018-07-09T16:23:06.510Z,27.85
2018-07-09T16:25:38.685Z,27.83
2018-07-09T16:28:10.840Z,27.93
2018-07-09T16:30:43.021Z,27.83
2018-07-09T16:33:15.477Z,27.79
2018-07-09T16:35:47.614Z,27.89
2018-07-09T16:38:20.161Z,27.82
2018-07-09T16:40:52.424Z,27.59
2018-07-09T16:43:24.700Z,27.29
2018-07-09T16:45:56.893Z,27.21
2018-07-09T16:48:29.232Z,27.12
2018-07-09T16:51:01.419Z,26.99
2018-07-09T16:53:33.631Z,26.94
2018-07-09T16:56:06.045Z,26.75
2018-07-09T16:58:38.275Z,26.64
2018-07-09T17:01:10.491Z,26.72
2018-07-09T17:03:42.679Z,26.74
2018-07-09T17:06:14.815Z,26.70
2018-07-09T17:08:46.983Z,26.55
2018-07-09T17:11:19.188Z,26.53
2018-07-09T17:13:51.371Z,26.45
2018-07-09T17:16:23.511Z,26.27
2018-07-09T17:18:55.705Z,26.30
2018-07-09T17:21:27.924Z,26.40
2018-07-09T17:24:00.272Z,26.37
2018-07-09T17:26:32.555Z,26.23
2018-07-09T17:29:04.635Z,26.23
2018-07-09T17:31:36.802Z,26.14
2018-07-09T17:34:08.959Z,26.08
2018-07-09T17:36:41.155Z,26.12
2018-07-09T17:39:13.360Z,26.01
2018-07-09T17:41:45.552Z,25.93
2018-07-09T17:44:17.637Z,25.93
2018-07-09T17:46:49.764Z,25.91
2018-07-09T17:49:21.971Z,26.10
2018-07-09T17:51:54.205Z,26.25
2018-07-09T17:54:26.407Z,26.26
2018-07-09T17:56:58.655Z,26.24
2018-07-09T17:59:30.846Z,26.29
2018-07-09T18:02:03.091Z,26.24
2018-07-09T18:04:35.372Z,26.21
2018-07-09T18:07:07.551Z,26.02
2018-07-09T18:09:39.700Z,25.94
2018-07-09T18:12:11.810Z,25.97
2018-07-09T18:14:43.991Z,25.95
2018-07-09T18:17:16.190Z,25.95
2018-07-09T18:19:48.398Z,25.87
2018-07-09T18:22:21.208Z,25.77
2018-07-09T18:24:53.410Z,25.69
2018-07-09T18:27:25.682Z,25.66
2018-07-09T18:29:57.804Z,25.78
2018-07-09T18:32:29.935Z,25.72
2018-07-09T18:35:02.018Z,25.66
2018-07-09T18:37:34.149Z,25.70
2018-07-09T18:40:06.321Z,25.77
2018-07-09T18:42:38.470Z,25.73
2018-07-09T18:45:10.610Z,25.54
2018-07-09T18:47:42.670Z,25.48
2018-07-09T18:50:14.818Z,25.26
2018-07-09T18:52:46.998Z,24.99
2018-07-09T18:55:19.161Z,24.88
2018-07-09T18:57:51.409Z,24.67
2018-07-09T19:00:23.525Z,24.58
2018-07-09T19:02:55.690Z,24.48
2018-07-09T19:05:41.869Z,24.40
2018-07-09T19:08:14.068Z,24.38
2018-07-09T19:10:46.283Z,24.29
2018-07-09T19:13:18.519Z,24.11
2018-07-09T19:15:50.688Z,23.92
2018-07-09T19:18:34.405Z,23.72
2018-07-09T19:21:30.679Z,23.43
2018-07-09T19:24:03.021Z,23.12
2018-07-09T19:26:34.409Z,23.08
2018-07-09T19:29:05.570Z,22.88
2018-07-09T19:31:36.697Z,22.71
2018-07-09T19:34:08.274Z,22.74
2018-07-09T19:36:39.506Z,22.66
2018-07-09T19:39:11.417Z,22.74
2018-07-09T19:41:42.648Z,22.59
2018-07-09T19:44:14.974Z,22.41
2018-07-09T19:46:46.135Z,22.31
2018-07-09T19:49:17.259Z,22.17
2018-07-09T19:51:48.407Z,22.14
2018-07-09T19:54:19.528Z,22.19
2018-07-09T19:56:50.662Z,22.23
2018-07-09T19:59:21.828Z,22.08
2018-07-09T20:01:52.960Z,22.05
2018-07-09T20:04:24.201Z,21.95
2018-07-09T20:06:55.449Z,21.92
2018-07-09T20:09:32.290Z,21.91
2018-07-09T20:13:06.740Z,21.75
2018-07-09T20:15:43.584Z,21.51
2018-07-09T20:18:14.742Z,21.30
2018-07-09T20:20:46.018Z,21.39
2018-07-09T20:23:17.155Z,21.43
2018-07-09T20:25:48.525Z,21.36
2018-07-09T20:28:19.696Z,21.37
2018-07-09T20:30:50.933Z,21.37
2018-07-09T20:33:22.058Z,21.35
2018-07-09T20:35:53.266Z,21.28
2018-07-09T20:38:24.459Z,21.20
2018-07-09T20:40:55.794Z,21.03
2018-07-09T20:43:27.012Z,20.95
2018-07-09T20:45:58.174Z,20.73
2018-07-09T20:48:29.365Z,20.68
2018-07-09T20:51:00.506Z,20.59
2018-07-09T20:53:31.661Z,20.45
2018-07-09T20:56:02.933Z,20.44
2018-07-09T20:58:34.857Z,20.39
2018-07-09T21:01:06.011Z,20.41
2018-07-09T21:03:37.300Z,20.28
2018-07-09T21:06:10.648Z,20.20
2018-07-09T21:08:41.860Z,20.24
2018-07-09T21:11:13.061Z,20.39
2018-07-09T21:13:44.219Z,20.39
2018-07-09T21:16:15.527Z,20.41
2018-07-09T21:18:46.560Z,20.50
2018-07-09T21:21:17.790Z,20.59
2018-07-09T21:23:48.960Z,20.78
2018-07-09T21:26:20.076Z,20.76
2018-07-09T21:28:51.225Z,20.76
2018-07-09T21:31:22.358Z,20.80
2018-07-09T21:33:53.475Z,20.77
2018-07-09T21:36:24.588Z,20.66
2018-07-09T21:38:55.714Z,20.48
2018-07-09T21:41:26.828Z,20.48
2018-07-09T21:43:57.972Z,20.48
2018-07-09T21:46:29.168Z,20.36
2018-07-09T21:49:00.300Z,20.47
2018-07-09T21:51:31.415Z,20.46
2018-07-09T21:54:02.556Z,20.40
2018-07-09T21:56:33.682Z,20.37
2018-07-09T21:59:04.827Z,20.32
2018-07-09T22:01:35.981Z,20.16
2018-07-09T22:04:07.135Z,20.05
2018-07-09T22:06:38.295Z,19.94
2018-07-09T22:09:09.388Z,19.97
2018-07-09T22:11:40.520Z,19.94
2018-07-09T22:14:11.738Z,19.73
2018-07-09T22:16:42.913Z,19.60
2018-07-09T22:19:14.667Z,19.41
2018-07-09T22:21:45.861Z,19.40
2018-07-09T22:24:16.998Z,19.28
2018-07-09T22:26:48.128Z,19.21
2018-07-09T22:29:19.251Z,19.06
2018-07-09T22:31:51.439Z,19.15
2018-07-09T22:34:23.570Z,19.41
2018-07-09T22:36:55.776Z,19.71
2018-07-09T22:39:28.041Z,19.66
2018-07-09T22:42:00.283Z,19.78
2018-07-09T22:44:32.456Z,19.85
2018-07-09T22:47:04.590Z,19.83
2018-07-09T22:49:36.840Z,19.86
2018-07-09T22:52:08.977Z,19.88
2018-07-09T22:54:41.181Z,19.74
2018-07-09T22:57:13.388Z,19.62
2018-07-09T22:59:45.615Z,19.43
2018-07-09T23:02:17.781Z,19.42
2018-07-09T23:04:49.963Z,19.30
2018-07-09T23:07:22.116Z,19.41
2018-07-09T23:10:14.605Z,19.29
2018-07-09T23:14:23.942Z,19.35
2018-07-09T23:17:07.643Z,19.29
2018-07-09T23:21:55.268Z,19.33
2018-07-09T23:24:26.892Z,19.06
2018-07-09T23:26:58.070Z,18.98
2018-07-09T23:29:29.233Z,19.12
2018-07-09T23:32:00.470Z,19.04
2018-07-09T23:34:31.706Z,19.11
2018-07-09T23:37:02.862Z,19.15
2018-07-09T23:39:33.983Z,19.25
2018-07-09T23:42:05.171Z,19.21
2018-07-09T23:44:36.263Z,19.28
2018-07-09T23:47:07.415Z,19.24
2018-07-09T23:49:38.554Z,19.25
2018-07-09T23:52:09.707Z,19.26
2018-07-09T23:54:40.863Z,19.27
2018-07-09T23:57:54.896Z,19.27
